createdAt,value
2019-04-14T06:24:51.460Z,54.20
2019-04-14T06:27:20.920Z,46.40
2019-04-14T06:29:52.063Z,45.60
2019-04-14T06:32:37.713Z,44.80
2019-04-14T06:35:14.822Z,43.20
2019-04-14T06:37:45.964Z,42.90
2019-04-14T06:40:15.434Z,42.40
2019-04-14T06:42:44.908Z,41.90
2019-04-14T06:45:14.394Z,41.30
2019-04-14T06:47:43.883Z,40.70
2019-04-14T06:50:13.464Z,40.40
2019-04-14T06:52:42.933Z,40.10
2019-04-14T06:55:12.435Z,40.40
2019-04-14T06:57:41.932Z,39.90
2019-04-14T07:02:34.075Z,39.10
2019-04-14T07:05:03.930Z,39.20
2019-04-14T07:07:33.403Z,39.00
2019-04-14T07:10:02.894Z,38.70
2019-04-14T07:12:32.507Z,38.60
2019-04-14T07:15:01.995Z,38.50
2019-04-14T07:17:32.451Z,38.40
2019-04-14T07:20:02.650Z,38.50
2019-04-14T07:22:32.183Z,38.40
2019-04-14T07:25:01.662Z,38.40
2019-04-14T07:27:32.227Z,38.30
2019-04-14T07:30:03.334Z,38.50
2019-04-14T07:32:40.673Z,38.40
2019-04-14T07:35:11.822Z,38.50
2019-04-14T07:37:45.622Z,38.60
2019-04-14T07:40:28.630Z,38.40
2019-04-14T07:43:08.622Z,38.60
2019-04-14T07:45:39.738Z,38.60
2019-04-14T07:48:10.865Z,38.70
2019-04-14T07:50:44.782Z,38.70
2019-04-14T07:53:15.895Z,38.70
2019-04-14T07:55:58.954Z,38.80
2019-04-14T07:58:30.062Z,38.70
2019-04-14T08:01:03.635Z,38.90
2019-04-14T08:03:51.115Z,38.70
2019-04-14T08:06:20.588Z,38.80
2019-04-14T08:08:50.083Z,38.80
2019-04-14T08:11:19.554Z,38.80
2019-04-14T08:13:50.011Z,38.80
2019-04-14T08:16:19.527Z,38.80
2019-04-14T08:18:49.065Z,38.80
2019-04-14T08:21:18.539Z,38.90
2019-04-14T08:23:48.031Z,38.90
2019-04-14T08:26:17.503Z,38.80
2019-04-14T08:28:47.000Z,38.80
2019-04-14T08:31:16.490Z,38.80
2019-04-14T08:33:45.968Z,38.80
2019-04-14T08:36:16.497Z,38.80
2019-04-14T08:38:45.975Z,38.80
2019-04-14T08:41:15.449Z,38.80
2019-04-14T08:43:55.562Z,38.70
2019-04-14T08:46:35.559Z,38.80
2019-04-14T08:49:09.862Z,38.80
2019-04-14T08:51:40.978Z,38.70
2019-04-14T08:54:26.945Z,38.70
2019-04-14T08:57:13.107Z,38.80
2019-04-14T08:59:44.258Z,38.80
2019-04-14T09:02:21.067Z,38.80
2019-04-14T09:04:54.911Z,38.90
2019-04-14T09:07:26.092Z,38.90
2019-04-14T09:10:03.395Z,39.00
2019-04-14T09:12:40.404Z,39.00
2019-04-14T09:15:10.046Z,39.00
2019-04-14T09:17:39.542Z,39.00
2019-04-14T09:20:09.351Z,39.00
2019-04-14T09:22:38.853Z,39.00
2019-04-14T09:25:08.467Z,39.00
2019-04-14T09:27:37.983Z,39.00
2019-04-14T09:30:08.864Z,39.00
2019-04-14T09:32:38.366Z,39.00
2019-04-14T09:35:07.840Z,39.00
2019-04-14T09:37:37.348Z,38.90
2019-04-14T09:40:07.110Z,38.90
2019-04-14T09:42:36.653Z,38.90
2019-04-14T09:45:07.482Z,38.90
2019-04-14T09:47:37.002Z,38.80
2019-04-14T09:50:07.619Z,38.80
2019-04-14T09:52:37.129Z,38.80
2019-04-14T09:55:07.215Z,38.80
2019-04-14T09:57:37.878Z,38.80
2019-04-14T10:00:07.738Z,38.70
2019-04-14T10:02:37.322Z,38.70
2019-04-14T10:05:07.349Z,38.70
2019-04-14T10:07:36.907Z,38.70
2019-04-14T10:10:07.110Z,38.70
2019-04-14T10:12:36.602Z,38.70
2019-04-14T10:15:06.876Z,38.80
2019-04-14T10:17:36.338Z,38.80
2019-04-14T10:20:06.589Z,38.80
2019-04-14T10:22:36.067Z,38.80
2019-04-14T10:25:06.922Z,38.90
2019-04-14T10:27:36.566Z,39.00
2019-04-14T10:30:09.251Z,39.00
2019-04-14T10:32:38.727Z,39.00
2019-04-14T13:02:17.583Z,53.40
2019-04-14T13:04:47.062Z,48.90
2019-04-14T13:07:17.711Z,47.60
2019-04-14T13:09:47.246Z,46.80
2019-04-14T13:12:16.703Z,46.30
2019-04-14T13:14:46.182Z,45.60
2019-04-14T13:17:15.729Z,45.20
2019-04-14T13:19:45.194Z,44.90
2019-04-14T13:22:14.687Z,44.50
2019-04-14T13:24:44.331Z,44.20
2019-04-14T13:27:13.883Z,43.90
2019-04-14T13:29:43.436Z,43.60
2019-04-14T13:32:13.017Z,43.70
2019-04-14T13:34:42.562Z,43.60
2019-04-14T13:37:12.047Z,43.50
2019-04-14T13:39:41.584Z,43.50
2019-04-14T13:42:11.062Z,43.40
2019-04-14T13:44:40.556Z,43.40
2019-04-14T13:47:10.051Z,42.90
2019-04-14T13:49:39.562Z,43.00
2019-04-14T13:52:09.070Z,43.00
2019-04-14T13:54:39.515Z,42.90
2019-04-14T13:57:09.014Z,42.80
2019-04-14T13:59:38.586Z,42.80
2019-04-14T14:02:08.136Z,42.80
2019-04-14T14:04:37.642Z,42.70
2019-04-14T14:07:07.411Z,42.60
2019-04-14T14:09:36.908Z,42.60
2019-04-14T14:12:24.318Z,42.60
2019-04-14T14:15:11.650Z,42.60
2019-04-14T14:17:45.265Z,42.30
2019-04-14T14:20:22.286Z,42.30
2019-04-14T14:22:59.643Z,42.20
2019-04-14T14:25:34.739Z,42.10
2019-04-14T14:28:04.325Z,42.10
2019-04-14T14:30:33.806Z,42.10
2019-04-14T14:33:03.299Z,42.20
2019-04-14T14:35:32.811Z,41.90
2019-04-14T14:38:02.328Z,42.00
2019-04-14T14:40:31.810Z,41.70
2019-04-14T14:43:01.490Z,41.70
2019-04-14T14:45:48.475Z,41.60
2019-04-14T14:48:34.444Z,41.80
2019-04-14T14:51:05.588Z,41.30
2019-04-14T14:53:35.092Z,40.20
2019-04-14T14:56:05.326Z,40.10
2019-04-14T14:58:34.835Z,39.30
2019-04-14T15:01:05.831Z,38.60
2019-04-14T15:03:35.335Z,37.90
2019-04-14T15:06:04.987Z,37.00
2019-04-14T15:08:34.494Z,36.90
2019-04-14T15:11:04.431Z,36.50
2019-04-14T15:13:34.010Z,36.10
2019-04-14T15:16:03.629Z,35.50
2019-04-14T15:18:33.222Z,35.20
2019-04-14T15:21:02.702Z,34.80
2019-04-14T15:23:32.186Z,34.30
2019-04-14T15:26:01.698Z,33.90
2019-04-14T15:28:31.188Z,33.60
2019-04-14T15:31:00.744Z,33.30
2019-04-14T15:33:30.257Z,33.00
2019-04-14T15:35:59.735Z,32.70
2019-04-14T15:38:29.223Z,32.40
2019-04-14T15:40:59.758Z,32.10
2019-04-14T15:43:29.243Z,32.80
2019-04-14T15:45:58.750Z,33.20
2019-04-14T15:48:28.227Z,32.80
2019-04-14T15:50:57.744Z,33.00
2019-04-14T15:53:37.721Z,33.20
2019-04-14T15:55:59.682Z,33.30
2019-04-14T15:58:45.715Z,33.50
2019-04-14T16:01:35.098Z,33.80
2019-04-14T16:04:06.394Z,33.90
2019-04-14T16:06:37.515Z,34.10
2019-04-14T16:09:09.302Z,34.50
2019-04-14T16:11:57.879Z,34.40
2019-04-14T16:14:31.773Z,34.50
2019-04-14T16:17:05.574Z,34.70
2019-04-14T16:19:46.014Z,34.80
2019-04-14T16:22:15.574Z,35.00
2019-04-14T16:24:45.246Z,35.20
2019-04-14T16:27:32.151Z,35.60
2019-04-14T16:30:05.902Z,35.70
2019-04-14T16:32:42.710Z,36.00
2019-04-14T16:35:13.894Z,36.20
2019-04-14T16:37:43.533Z,36.40
2019-04-14T16:40:13.679Z,36.40
2019-04-14T16:42:43.234Z,36.50
2019-04-14T16:45:13.383Z,36.50
2019-04-14T16:47:44.488Z,36.70
2019-04-14T16:50:14.119Z,36.80
2019-04-14T16:52:45.426Z,36.80
2019-04-14T16:55:16.613Z,36.90
2019-04-14T16:58:03.907Z,37.00
2019-04-14T17:00:37.118Z,37.60
2019-04-14T17:03:06.344Z,38.30
2019-04-14T17:05:38.882Z,38.60
2019-04-14T17:08:07.022Z,39.20
2019-04-14T17:10:36.594Z,38.50
2019-04-14T17:13:06.077Z,38.50
2019-04-14T17:15:55.190Z,38.60
2019-04-14T17:18:35.290Z,38.70
2019-04-14T17:21:12.232Z,38.90
2019-04-14T17:23:43.436Z,39.00
2019-04-14T17:26:14.550Z,39.00
2019-04-14T17:28:51.835Z,39.20
2019-04-14T17:32:22.237Z,38.80
2019-04-14T17:35:07.182Z,40.00
2019-04-14T17:37:43.931Z,42.50
2019-04-14T17:40:18.226Z,44.00
2019-04-14T17:42:52.001Z,44.60
2019-04-14T17:45:34.155Z,45.50
2019-04-14T17:48:21.747Z,45.70
2019-04-14T17:50:58.822Z,46.00
2019-04-14T17:53:42.065Z,45.80
2019-04-14T17:56:13.202Z,46.50
2019-04-14T17:58:47.118Z,48.10
2019-04-14T18:01:18.383Z,48.50
2019-04-14T18:03:49.582Z,46.00
2019-04-14T18:06:32.885Z,45.50
2019-04-14T18:09:17.471Z,46.10
2019-04-14T18:12:00.508Z,45.70
2019-04-14T18:14:31.690Z,46.30
2019-04-14T18:17:14.751Z,46.10
2019-04-14T18:19:45.895Z,46.50
2019-04-14T18:22:15.416Z,44.30
2019-04-14T18:24:44.997Z,45.20
2019-04-14T18:27:14.483Z,44.40
2019-04-14T18:29:48.220Z,45.60
2019-04-14T18:32:18.594Z,45.00
2019-04-14T18:34:52.603Z,45.70
2019-04-14T18:37:23.786Z,46.80
2019-04-14T18:39:54.912Z,46.30
2019-04-14T18:42:37.851Z,46.00
2019-04-14T18:45:19.123Z,46.00
2019-04-14T18:47:50.275Z,45.80
2019-04-14T18:50:30.276Z,46.00
2019-04-14T18:53:13.223Z,45.70
2019-04-14T18:56:02.476Z,45.90
2019-04-14T18:58:48.886Z,45.60
2019-04-14T19:01:23.065Z,45.40
2019-04-14T19:03:52.559Z,44.30
2019-04-14T19:06:22.051Z,43.30
2019-04-14T19:08:52.374Z,45.80
2019-04-14T19:11:41.892Z,45.90
2019-04-14T19:14:13.052Z,45.30
2019-04-14T19:16:47.070Z,43.60
2019-04-14T19:19:18.258Z,48.00
2019-04-14T19:21:47.703Z,47.50
2019-04-14T19:24:17.187Z,45.60
2019-04-14T19:26:46.711Z,46.00
2019-04-14T19:29:16.199Z,45.30
2019-04-14T19:31:45.714Z,44.80
2019-04-14T19:34:15.207Z,45.90
2019-04-14T19:36:44.695Z,45.20
2019-04-14T19:39:14.208Z,45.40
2019-04-14T19:41:43.879Z,45.10
2019-04-14T19:44:13.419Z,46.30
2019-04-14T19:46:43.951Z,45.40
2019-04-14T19:49:13.455Z,45.30
2019-04-14T19:51:42.981Z,45.90
2019-04-14T19:54:12.463Z,46.40
2019-04-14T19:56:41.986Z,45.60
2019-04-14T19:59:12.491Z,46.10
2019-04-14T20:01:42.069Z,44.90
2019-04-14T20:04:11.596Z,45.60
2019-04-14T20:06:41.211Z,45.20
2019-04-14T20:09:10.804Z,45.80
2019-04-14T20:11:40.650Z,44.90
2019-04-14T20:14:10.157Z,46.80
2019-04-14T20:16:41.318Z,45.60
2019-04-14T20:19:28.815Z,46.50
2019-04-14T20:22:02.839Z,45.80
2019-04-14T20:24:42.823Z,45.80
2019-04-14T20:27:30.228Z,44.90
2019-04-14T20:30:01.408Z,45.10
2019-04-14T20:32:32.615Z,45.50
2019-04-14T20:35:03.019Z,44.60
2019-04-14T20:37:32.511Z,45.60
2019-04-14T20:40:02.019Z,45.60
2019-04-14T20:42:32.775Z,45.40
2019-04-14T20:45:02.630Z,45.40
2019-04-14T20:47:35.195Z,45.40
2019-04-14T20:50:06.821Z,44.80
2019-04-14T20:52:36.374Z,45.00
2019-04-14T20:55:08.121Z,46.00
2019-04-14T20:57:37.753Z,46.00
2019-04-14T21:00:08.279Z,45.70
2019-04-14T21:02:46.966Z,45.80
2019-04-14T21:05:26.908Z,44.90
2019-04-14T21:08:14.483Z,45.60
2019-04-14T21:10:45.629Z,44.60
2019-04-14T21:13:19.822Z,45.90
2019-04-14T21:15:54.616Z,45.40
2019-04-14T21:18:39.630Z,45.40
2019-04-14T21:21:13.494Z,45.80
2019-04-14T21:23:44.642Z,45.90
2019-04-14T21:26:18.779Z,45.00
2019-04-14T21:28:49.940Z,45.60
2019-04-14T21:31:23.768Z,45.90
2019-04-14T21:33:56.890Z,45.60
2019-04-14T21:36:40.053Z,44.50
2019-04-14T21:39:29.723Z,46.00
2019-04-14T21:41:59.512Z,45.30
2019-04-14T21:44:28.995Z,45.20
2019-04-14T21:46:58.557Z,45.80
2019-04-14T21:49:28.073Z,45.40
2019-04-14T21:51:59.379Z,45.30
2019-04-14T21:54:30.027Z,46.00
2019-04-14T21:57:17.015Z,45.30
2019-04-14T22:00:04.438Z,45.70
2019-04-14T22:02:53.218Z,44.50
2019-04-14T22:05:40.185Z,45.30
2019-04-14T22:08:25.212Z,45.20
2019-04-14T22:10:55.738Z,45.10
2019-04-14T22:13:25.307Z,45.10
2019-04-14T22:15:54.887Z,45.10
2019-04-14T22:18:24.379Z,44.50
2019-04-14T22:20:53.888Z,45.60
2019-04-14T22:23:23.549Z,44.90
2019-04-14T22:25:53.047Z,45.30
2019-04-14T22:28:22.567Z,45.60
2019-04-14T22:30:52.199Z,44.90
2019-04-14T22:33:21.684Z,45.20
2019-04-14T22:35:51.255Z,45.00
2019-04-14T22:38:20.839Z,45.20
2019-04-14T22:40:50.323Z,44.80
2019-04-14T22:43:19.891Z,45.30
2019-04-14T22:45:49.371Z,45.10
2019-04-14T22:48:18.871Z,44.40
2019-04-14T22:50:48.356Z,44.60
2019-04-14T22:53:17.847Z,44.90
2019-04-14T22:55:47.341Z,45.20
2019-04-14T22:58:16.842Z,45.00
2019-04-14T23:00:51.170Z,44.60
2019-04-14T23:03:38.935Z,45.00
2019-04-14T23:06:28.114Z,44.10
2019-04-14T23:09:15.773Z,44.40
2019-04-14T23:11:46.912Z,45.30
2019-04-14T23:14:20.459Z,44.50
2019-04-14T23:16:57.383Z,45.60
2019-04-14T23:19:28.523Z,45.40
2019-04-14T23:22:02.328Z,45.20
2019-04-14T23:24:33.535Z,45.40
2019-04-14T23:27:03.037Z,45.30
2019-04-14T23:29:32.513Z,45.00
2019-04-14T23:32:02.013Z,44.80
2019-04-14T23:34:31.495Z,45.70
2019-04-14T23:37:01.059Z,45.00
2019-04-14T23:39:30.697Z,45.70
2019-04-14T23:42:00.260Z,45.50
2019-04-14T23:44:29.758Z,45.50
2019-04-14T23:46:59.355Z,45.90
2019-04-14T23:49:28.888Z,45.90
2019-04-14T23:51:58.344Z,45.50
2019-04-14T23:54:27.861Z,45.20
2019-04-14T23:57:05.298Z,45.60
2019-04-14T23:59:29.668Z,45.20
